Time;durP1;ratioP1;P1;durP2;ratioP2;P2;SDS_P1;SDS_P2;PMS_P1;PMS_P2;Temp;Humidity;BMP_temperature;BMP_pressure;BME280_temperature;BME280_humidity;BME280_pressure;Samples;Min_cycle;Max_cycle;Signal;HPM_P1;HPM_P2
2023/10/15 00:00:24;;;;;;;19.35;15.55;;;6.40;99.90;;;;;;4940746;28;20058;-71
2023/10/15 00:02:52;;;;;;;27.73;15.93;;;6.40;99.90;;;;;;4931134;28;20920;-72
2023/10/15 00:05:21;;;;;;;19.15;15.23;;;6.40;99.90;;;;;;4937168;28;20069;-72
2023/10/15 00:07:50;;;;;;;15.02;13.63;;;6.40;99.90;;;;;;4920489;28;20130;-71
2023/10/15 00:10:22;;;;;;;26.58;15.63;;;6.40;99.90;;;;;;4935893;28;20060;-71
2023/10/15 00:12:52;;;;;;;24.75;15.70;;;6.40;99.90;;;;;;4919567;28;20522;-72
2023/10/15 00:15:23;;;;;;;19.13;15.60;;;6.40;99.90;;;;;;4936218;28;20043;-71
2023/10/15 00:17:56;;;;;;;22.75;15.48;;;6.40;99.90;;;;;;4922918;28;20055;-70
2023/10/15 00:20:26;;;;;;;16.98;15.30;;;6.30;99.90;;;;;;4938303;28;20446;-71
2023/10/15 00:22:53;;;;;;;25.02;15.45;;;6.30;99.90;;;;;;4915987;28;20051;-71
2023/10/15 00:25:21;;;;;;;24.38;15.88;;;6.20;99.90;;;;;;4935650;28;20605;-72
2023/10/15 00:27:54;;;;;;;21.55;16.73;;;6.20;99.90;;;;;;4920939;28;20752;-73
2023/10/15 00:30:22;;;;;;;20.17;14.60;;;6.20;99.90;;;;;;4919436;28;20498;-72
2023/10/15 00:32:52;;;;;;;20.75;14.18;;;6.10;99.90;;;;;;4921350;28;20696;-72
2023/10/15 00:35:19;;;;;;;25.92;14.73;;;6.10;99.90;;;;;;4935448;28;20039;-75
2023/10/15 00:37:54;;;;;;;21.10;14.80;;;6.20;99.90;;;;;;4918867;28;20437;-75
2023/10/15 00:40:23;;;;;;;19.98;14.65;;;6.10;99.90;;;;;;4921867;28;20055;-73
2023/10/15 00:42:51;;;;;;;27.25;16.35;;;6.10;99.90;;;;;;4934461;28;20504;-74
2023/10/15 00:45:19;;;;;;;17.40;14.35;;;6.10;99.90;;;;;;4920170;29;20070;-72
2023/10/15 00:47:53;;;;;;;15.73;14.05;;;6.10;99.90;;;;;;4933923;28;20190;-73
2023/10/15 00:50:20;;;;;;;19.98;14.55;;;6.10;99.90;;;;;;4919897;28;20052;-74
2023/10/15 00:52:48;;;;;;;18.48;14.50;;;6.10;99.90;;;;;;4925168;28;20051;-74
2023/10/15 00:55:22;;;;;;;17.52;14.15;;;6.10;99.90;;;;;;4918181;28;20055;-75
2023/10/15 00:57:55;;;;;;;24.15;14.32;;;6.10;99.90;;;;;;4921814;28;20043;-75
2023/10/15 01:03:09;;;;;;;22.48;14.63;;;6.10;99.90;;;;;;4936377;28;20123;-71
2023/10/15 01:05:46;;;;;;;18.75;14.23;;;6.00;99.90;;;;;;4932492;28;20039;-71
2023/10/15 01:08:16;;;;;;;17.52;14.35;;;6.10;99.90;;;;;;4936651;28;20046;-72
2023/10/15 01:10:43;;;;;;;26.80;15.13;;;6.00;99.90;;;;;;4913982;28;20142;-72
2023/10/15 01:13:16;;;;;;;25.33;15.10;;;6.00;99.90;;;;;;4916122;28;20047;-72
2023/10/15 01:15:43;;;;;;;16.33;13.68;;;6.00;99.90;;;;;;4934971;28;20458;-71
2023/10/15 01:18:10;;;;;;;22.63;14.25;;;6.00;99.90;;;;;;4932488;28;20092;-72
2023/10/15 01:20:44;;;;;;;27.08;14.32;;;6.00;99.90;;;;;;4915589;28;20057;-73
2023/10/15 01:23:28;;;;;;;29.40;13.77;;;6.00;99.90;;;;;;4936122;28;20051;-74
2023/10/15 01:26:17;;;;;;;16.85;14.70;;;6.10;99.90;;;;;;4916878;28;20113;-74
2023/10/15 01:28:45;;;;;;;21.83;14.77;;;6.10;99.90;;;;;;4919327;28;20043;-73
2023/10/15 01:31:15;;;;;;;15.82;14.15;;;6.10;99.90;;;;;;4933036;28;20043;-72
2023/10/15 01:33:52;;;;;;;23.50;14.32;;;6.10;99.90;;;;;;4920992;28;20105;-72
2023/10/15 01:36:29;;;;;;;21.85;14.32;;;6.10;99.90;;;;;;4932367;28;20059;-72
2023/10/15 01:39:09;;;;;;;17.83;14.48;;;6.00;99.90;;;;;;4915946;28;20123;-73
2023/10/15 01:41:39;;;;;;;20.08;15.15;;;6.00;99.90;;;;;;4930141;28;20131;-71
2023/10/15 01:44:07;;;;;;;20.10;13.68;;;6.00;99.90;;;;;;4924100;28;20062;-72
2023/10/15 01:47:07;;;;;;;22.98;14.55;;;6.00;99.90;;;;;;4899539;28;20470;-72
2023/10/15 01:49:34;;;;;;;22.30;14.32;;;6.00;99.90;;;;;;4939450;28;20042;-72
2023/10/15 01:52:10;;;;;;;15.88;14.18;;;6.10;99.90;;;;;;4915432;28;20043;-73
2023/10/15 01:54:41;;;;;;;23.20;14.57;;;6.10;99.90;;;;;;4915583;28;20047;-71
2023/10/15 01:57:15;;;;;;;28.00;15.48;;;6.10;99.90;;;;;;4931401;28;20047;-73
2023/10/15 01:59:45;;;;;;;19.00;14.27;;;6.10;99.90;;;;;;4903229;28;20047;-72
2023/10/15 02:02:17;;;;;;;19.98;14.80;;;6.10;99.90;;;;;;4912851;28;20043;-71
2023/10/15 02:04:57;;;;;;;20.45;14.02;;;6.00;99.90;;;;;;4931065;28;20055;-71
2023/10/15 02:07:39;;;;;;;19.13;14.43;;;6.00;99.90;;;;;;4919667;28;20059;-72
2023/10/15 02:10:06;;;;;;;20.90;14.00;;;6.10;99.90;;;;;;4918208;28;20130;-72
2023/10/15 02:12:33;;;;;;;25.77;15.38;;;6.20;99.90;;;;;;4926486;28;20047;-73
2023/10/15 02:15:22;;;;;;;23.42;14.48;;;6.20;99.90;;;;;;4910414;28;20043;-72
2023/10/15 02:17:46;;;;;;;22.83;15.98;;;6.30;99.90;;;;;;4915161;28;20062;-73
2023/10/15 02:20:13;;;;;;;16.67;14.05;;;6.30;99.90;;;;;;4899298;28;20664;-73
2023/10/15 02:22:40;;;;;;;23.15;14.68;;;6.20;99.90;;;;;;4916227;28;20063;-73
2023/10/15 02:25:08;;;;;;;19.00;14.65;;;6.30;99.90;;;;;;4931505;28;20054;-73
2023/10/15 02:27:35;;;;;;;21.45;13.95;;;6.30;99.90;;;;;;4913673;28;20075;-73
2023/10/15 02:30:04;;;;;;;16.77;13.50;;;6.30;99.90;;;;;;4930124;28;20109;-71
2023/10/15 02:32:31;;;;;;;20.38;13.55;;;6.30;99.90;;;;;;4917488;29;20044;-73
2023/10/15 02:35:05;;;;;;;22.55;14.00;;;6.30;99.90;;;;;;4915784;28;20051;-73
2023/10/15 02:37:32;;;;;;;20.67;13.23;;;6.30;99.90;;;;;;4916046;28;20162;-71
2023/10/15 02:39:59;;;;;;;18.40;13.68;;;6.30;99.90;;;;;;4931118;28;20063;-74
2023/10/15 02:42:35;;;;;;;24.42;14.65;;;6.30;99.90;;;;;;4916550;28;20074;-72
2023/10/15 02:45:06;;;;;;;20.33;13.93;;;6.40;99.90;;;;;;4920000;28;20208;-71
2023/10/15 02:47:48;;;;;;;15.23;13.60;;;6.40;99.90;;;;;;4902477;28;20118;-71
2023/10/15 02:50:33;;;;;;;19.80;13.98;;;6.40;99.90;;;;;;4914499;28;20059;-73
2023/10/15 02:53:04;;;;;;;21.85;14.05;;;6.40;99.90;;;;;;4916640;28;20158;-72
2023/10/15 02:55:47;;;;;;;15.63;14.07;;;6.50;99.90;;;;;;4917973;29;20044;-72
2023/10/15 02:58:16;;;;;;;20.67;14.52;;;6.50;99.90;;;;;;4914623;28;20066;-74
2023/10/15 03:00:43;;;;;;;15.23;13.85;;;6.50;99.90;;;;;;4920646;28;20050;-72
2023/10/15 03:03:15;;;;;;;20.08;14.95;;;6.50;99.90;;;;;;4931329;28;20051;-72
2023/10/15 03:05:42;;;;;;;16.13;14.25;;;6.60;99.90;;;;;;4932130;28;20451;-72
2023/10/15 03:08:18;;;;;;;18.55;15.38;;;6.50;99.90;;;;;;4928314;28;20091;-72
2023/10/15 03:10:46;;;;;;;25.17;15.02;;;6.40;99.90;;;;;;4926307;28;20047;-73
2023/10/15 03:13:14;;;;;;;21.73;16.05;;;6.50;99.90;;;;;;4932121;28;20469;-73
2023/10/15 03:15:50;;;;;;;18.80;14.95;;;6.50;99.90;;;;;;4916003;28;20051;-72
2023/10/15 03:18:24;;;;;;;16.80;14.88;;;6.50;99.90;;;;;;4915839;28;20154;-72
2023/10/15 03:21:09;;;;;;;22.15;15.40;;;6.40;99.90;;;;;;4932498;28;20098;-72
2023/10/15 03:23:39;;;;;;;17.02;15.23;;;6.30;99.90;;;;;;4917605;28;20634;-74
2023/10/15 03:26:05;;;;;;;18.15;14.52;;;6.30;99.90;;;;;;4931688;28;20035;-72
2023/10/15 03:28:34;;;;;;;16.73;14.52;;;6.20;99.90;;;;;;4911052;29;20075;-72
2023/10/15 03:31:01;;;;;;;14.40;12.98;;;6.20;99.90;;;;;;4919106;28;21495;-73
2023/10/15 03:33:30;;;;;;;16.95;13.70;;;6.20;99.90;;;;;;4936175;28;20098;-72
2023/10/15 03:35:59;;;;;;;17.92;12.63;;;6.20;99.90;;;;;;4926073;28;20047;-71
2023/10/15 03:38:33;;;;;;;14.02;12.73;;;6.20;99.90;;;;;;4935114;28;20560;-73
2023/10/15 03:41:21;;;;;;;13.80;12.45;;;6.20;99.90;;;;;;4931933;28;20039;-71
2023/10/15 03:43:48;;;;;;;17.85;12.35;;;6.20;99.90;;;;;;4921034;28;20205;-71
2023/10/15 03:46:25;;;;;;;18.20;13.05;;;6.20;99.90;;;;;;4922782;28;20044;-72
2023/10/15 03:48:53;;;;;;;14.15;12.75;;;6.30;99.90;;;;;;4912243;29;20151;-73
2023/10/15 03:51:23;;;;;;;16.02;12.65;;;6.20;99.90;;;;;;4921667;28;21298;-72
2023/10/15 03:53:50;;;;;;;17.90;12.45;;;6.20;99.90;;;;;;4919522;28;20050;-72
2023/10/15 03:56:18;;;;;;;19.30;12.70;;;6.10;99.90;;;;;;4917361;28;20039;-72
2023/10/15 03:58:45;;;;;;;21.08;13.10;;;6.10;99.90;;;;;;4919551;28;20058;-70
2023/10/15 04:01:16;;;;;;;15.00;13.30;;;6.20;99.90;;;;;;4917650;28;20691;-71
2023/10/15 04:03:47;;;;;;;16.80;12.70;;;6.20;99.90;;;;;;4919177;28;20114;-72
2023/10/15 04:06:18;;;;;;;18.15;10.70;;;6.10;99.90;;;;;;4933250;28;20051;-72
2023/10/15 04:09:33;;;;;;;17.58;11.23;;;5.90;99.90;;;;;;4933751;28;20497;-70
2023/10/15 04:11:42;;;;;;;15.23;11.30;;;5.90;99.90;;;;;;4921201;28;20043;-69
2023/10/15 04:14:17;;;;;;;16.13;12.00;;;5.80;99.90;;;;;;4919989;28;20123;-71
2023/10/15 04:16:46;;;;;;;14.15;11.25;;;5.90;99.90;;;;;;4934826;28;20043;-69
2023/10/15 04:19:17;;;;;;;21.45;11.88;;;5.90;99.90;;;;;;4934337;28;20086;-70
2023/10/15 04:21:45;;;;;;;16.45;12.00;;;5.90;99.90;;;;;;4918264;28;20122;-69
2023/10/15 04:24:26;;;;;;;18.73;11.75;;;5.80;99.90;;;;;;4936079;28;20047;-72
2023/10/15 04:26:54;;;;;;;13.05;11.65;;;5.80;99.90;;;;;;4933353;28;20051;-71
2023/10/15 04:29:21;;;;;;;19.42;12.70;;;5.80;99.90;;;;;;4919827;28;20125;-71
2023/10/15 04:32:00;;;;;;;15.20;12.00;;;5.80;99.90;;;;;;4935428;28;20626;-71
2023/10/15 04:34:29;;;;;;;15.07;11.60;;;5.80;99.90;;;;;;4913938;28;20134;-70
2023/10/15 04:36:57;;;;;;;16.42;12.05;;;5.80;99.90;;;;;;4934465;28;20032;-71
2023/10/15 04:39:24;;;;;;;19.02;12.60;;;5.90;99.90;;;;;;4933441;28;20051;-71
2023/10/15 04:42:20;;;;;;;17.50;13.82;;;5.90;99.90;;;;;;4933459;28;20039;-68
2023/10/15 04:44:50;;;;;;;19.83;13.38;;;5.90;99.90;;;;;;4933076;28;20047;-69
2023/10/15 04:47:27;;;;;;;18.73;13.02;;;5.90;99.90;;;;;;4917964;28;20054;-69
2023/10/15 04:49:57;;;;;;;21.25;12.65;;;5.80;99.90;;;;;;4935243;28;20056;-70
2023/10/15 04:52:26;;;;;;;24.48;14.80;;;5.80;99.90;;;;;;4919031;28;20126;-69
2023/10/15 04:54:55;;;;;;;26.02;15.70;;;5.80;99.90;;;;;;4935556;28;20042;-71
2023/10/15 04:57:24;;;;;;;23.13;15.05;;;5.80;99.90;;;;;;4933622;28;20039;-72
2023/10/15 04:59:51;;;;;;;24.95;16.15;;;5.80;99.90;;;;;;4934905;28;20477;-70
2023/10/15 05:02:18;;;;;;;23.60;16.77;;;5.90;99.90;;;;;;4901827;28;20146;-72
2023/10/15 05:04:45;;;;;;;28.05;20.10;;;5.90;99.90;;;;;;4919946;28;20062;-69
2023/10/15 05:07:15;;;;;;;33.55;20.85;;;6.00;99.90;;;;;;4935218;28;20130;-72
2023/10/15 05:09:45;;;;;;;27.48;19.92;;;5.90;99.90;;;;;;4936115;28;20600;-70
2023/10/15 05:12:12;;;;;;;28.45;19.60;;;5.90;99.90;;;;;;4933235;28;20296;-72
2023/10/15 05:14:39;;;;;;;32.85;19.95;;;5.90;99.90;;;;;;4906060;28;20120;-71
2023/10/15 05:17:06;;;;;;;33.65;21.40;;;5.90;99.90;;;;;;4918723;28;20075;-72
2023/10/15 05:19:33;;;;;;;25.80;20.98;;;6.00;99.90;;;;;;4921537;28;20911;-70
2023/10/15 05:22:00;;;;;;;29.10;20.38;;;6.00;99.90;;;;;;4917932;28;20071;-71
2023/10/15 05:24:27;;;;;;;35.72;22.92;;;6.00;99.90;;;;;;4918070;28;20110;-71
2023/10/15 05:26:54;;;;;;;34.35;23.63;;;6.00;99.90;;;;;;4918173;28;20055;-72
2023/10/15 05:29:23;;;;;;;37.17;23.58;;;6.00;99.90;;;;;;4934346;28;20381;-72
2023/10/15 05:31:50;;;;;;;44.63;25.70;;;6.10;99.90;;;;;;4933836;28;20082;-72
2023/10/15 05:34:17;;;;;;;40.05;24.70;;;6.10;99.90;;;;;;4935465;28;20491;-71
2023/10/15 05:36:46;;;;;;;39.58;24.10;;;6.20;99.90;;;;;;4920053;28;20161;-71
2023/10/15 05:39:15;;;;;;;35.13;25.17;;;6.10;99.90;;;;;;4937133;28;20050;-71
2023/10/15 05:41:43;;;;;;;37.35;21.30;;;6.00;99.90;;;;;;4920209;28;20669;-71
2023/10/15 05:44:09;;;;;;;33.40;22.90;;;6.00;99.90;;;;;;4923179;28;20063;-71
2023/10/15 05:46:37;;;;;;;41.80;23.85;;;6.00;99.90;;;;;;4931954;28;20055;-71
2023/10/15 05:49:05;;;;;;;36.33;22.90;;;6.00;99.90;;;;;;4935802;28;20138;-71
2023/10/15 05:51:32;;;;;;;40.88;22.25;;;6.00;99.90;;;;;;4918368;28;20077;-69
2023/10/15 05:54:00;;;;;;;36.40;22.05;;;6.10;99.90;;;;;;4919654;28;20093;-71
2023/10/15 05:56:28;;;;;;;33.33;20.83;;;6.00;99.90;;;;;;4916454;28;20039;-71
2023/10/15 05:58:54;;;;;;;36.17;22.08;;;6.10;99.90;;;;;;4925280;28;20047;-71
2023/10/15 06:01:23;;;;;;;30.38;19.67;;;6.10;99.90;;;;;;4932188;28;20130;-71
2023/10/15 06:03:50;;;;;;;32.72;21.02;;;6.10;99.90;;;;;;4939776;28;20102;-71
2023/10/15 06:06:17;;;;;;;38.05;21.38;;;6.10;99.90;;;;;;4919346;28;20047;-70
2023/10/15 06:08:43;;;;;;;28.42;19.65;;;6.00;99.90;;;;;;4919194;28;20110;-72
2023/10/15 06:11:11;;;;;;;22.02;15.73;;;6.10;99.90;;;;;;4919683;28;20136;-72
2023/10/15 06:13:38;;;;;;;22.40;14.48;;;6.00;99.90;;;;;;4916235;28;20055;-72
2023/10/15 06:16:05;;;;;;;30.40;19.83;;;5.90;99.90;;;;;;4902961;28;20134;-70
2023/10/15 06:18:32;;;;;;;28.52;19.23;;;5.90;99.90;;;;;;4917478;28;20055;-70
2023/10/15 06:20:59;;;;;;;27.27;19.35;;;6.00;99.90;;;;;;4915488;28;20047;-72
2023/10/15 06:23:26;;;;;;;30.27;19.02;;;6.00;99.90;;;;;;4933846;28;20105;-71
2023/10/15 06:25:53;;;;;;;26.60;18.67;;;6.00;99.90;;;;;;4934304;28;20114;-73
2023/10/15 06:28:22;;;;;;;26.02;19.30;;;5.90;99.90;;;;;;4917234;28;20110;-71
2023/10/15 06:30:49;;;;;;;24.88;19.48;;;6.00;99.90;;;;;;4918526;28;20565;-70
2023/10/15 06:33:18;;;;;;;30.40;19.90;;;6.00;99.90;;;;;;4917216;28;20039;-72
2023/10/15 06:35:45;;;;;;;28.70;21.60;;;6.10;99.90;;;;;;4918797;28;20055;-70
2023/10/15 06:38:12;;;;;;;30.15;21.85;;;6.10;99.90;;;;;;4934157;28;20126;-72
2023/10/15 06:40:39;;;;;;;31.92;22.25;;;6.20;99.90;;;;;;4915717;28;20058;-71
2023/10/15 06:43:06;;;;;;;31.00;21.77;;;6.20;99.90;;;;;;4917285;28;20039;-71
2023/10/15 06:45:33;;;;;;;24.80;20.48;;;6.20;99.90;;;;;;4931442;28;20043;-71
2023/10/15 06:48:02;;;;;;;28.13;21.67;;;6.20;99.90;;;;;;4922193;28;20055;-70
2023/10/15 06:50:30;;;;;;;26.35;20.40;;;6.30;99.90;;;;;;4931502;28;20425;-71
2023/10/15 06:52:57;;;;;;;30.58;21.83;;;6.20;99.90;;;;;;4935139;28;20145;-73
2023/10/15 06:55:24;;;;;;;29.42;19.92;;;6.30;99.90;;;;;;4913249;28;20051;-72
2023/10/15 06:57:51;;;;;;;30.30;21.02;;;6.20;99.90;;;;;;4920411;28;20054;-71
2023/10/15 07:00:22;;;;;;;22.20;17.77;;;6.30;99.90;;;;;;4919676;28;20622;-72
2023/10/15 07:02:50;;;;;;;23.42;17.42;;;6.30;99.90;;;;;;4921632;28;20047;-71
2023/10/15 07:05:20;;;;;;;22.30;17.05;;;6.30;99.90;;;;;;4941527;28;20517;-73
2023/10/15 07:07:48;;;;;;;18.60;16.45;;;6.30;99.90;;;;;;4940410;28;20051;-70
2023/10/15 07:10:16;;;;;;;19.60;17.50;;;6.30;99.90;;;;;;4938213;28;20039;-71
2023/10/15 07:12:45;;;;;;;21.17;17.20;;;6.30;99.90;;;;;;4921261;28;20051;-72
2023/10/15 07:15:13;;;;;;;18.48;16.58;;;6.30;99.90;;;;;;4939975;28;20036;-72
2023/10/15 07:17:41;;;;;;;17.65;15.77;;;6.30;99.90;;;;;;4920342;28;20044;-73
2023/10/15 07:20:14;;;;;;;21.98;17.17;;;6.30;99.90;;;;;;4939325;28;20733;-72
2023/10/15 07:22:43;;;;;;;21.38;15.93;;;6.30;99.90;;;;;;4935857;28;20505;-71
2023/10/15 07:25:10;;;;;;;17.00;15.30;;;6.30;99.90;;;;;;4938223;28;20545;-71
2023/10/15 07:27:41;;;;;;;17.05;15.35;;;6.30;99.90;;;;;;4939073;28;20655;-72
2023/10/15 07:30:12;;;;;;;20.40;16.95;;;6.40;99.90;;;;;;4921971;28;20095;-72
2023/10/15 07:32:41;;;;;;;21.25;17.50;;;6.40;99.90;;;;;;4922192;28;20047;-72
2023/10/15 07:35:12;;;;;;;21.02;15.77;;;6.50;99.90;;;;;;4940686;28;20050;-73
2023/10/15 07:37:44;;;;;;;23.58;18.25;;;6.50;99.90;;;;;;4941995;28;20043;-70
2023/10/15 07:40:16;;;;;;;22.55;17.13;;;6.50;99.90;;;;;;4921058;28;20057;-72
2023/10/15 07:42:46;;;;;;;21.02;17.33;;;6.60;99.90;;;;;;4920535;28;20055;-71
2023/10/15 07:45:13;;;;;;;24.23;18.83;;;6.60;99.90;;;;;;4937380;28;20047;-72
2023/10/15 07:47:40;;;;;;;22.75;19.15;;;6.60;99.90;;;;;;4918202;28;20055;-72
2023/10/15 07:50:09;;;;;;;18.80;16.63;;;6.70;99.90;;;;;;4937615;28;20054;-73
2023/10/15 07:52:38;;;;;;;22.95;19.80;;;6.60;99.90;;;;;;4919443;28;20047;-72
2023/10/15 07:55:10;;;;;;;28.98;21.33;;;6.60;99.90;;;;;;4935772;28;20088;-70
2023/10/15 07:57:37;;;;;;;25.17;21.80;;;6.60;99.90;;;;;;4921044;28;20051;-72
2023/10/15 08:00:10;;;;;;;29.02;22.27;;;6.60;99.90;;;;;;4940178;28;20047;-72
2023/10/15 08:02:41;;;;;;;25.38;20.85;;;6.60;99.90;;;;;;4917739;29;20536;-73
2023/10/15 08:05:08;;;;;;;28.70;20.20;;;6.60;99.90;;;;;;4904826;29;20654;-72
2023/10/15 08:07:41;;;;;;;21.95;19.75;;;6.60;99.90;;;;;;4920948;28;20052;-72
2023/10/15 08:10:09;;;;;;;23.92;18.75;;;6.70;99.90;;;;;;4936896;28;20055;-71
2023/10/15 08:12:37;;;;;;;22.65;18.48;;;6.60;99.90;;;;;;4937744;28;20035;-72
2023/10/15 08:15:06;;;;;;;24.73;19.65;;;6.60;99.90;;;;;;4935200;28;20178;-71
2023/10/15 08:17:34;;;;;;;23.10;18.88;;;6.60;99.90;;;;;;4935698;28;20590;-71
2023/10/15 08:20:03;;;;;;;20.92;18.65;;;6.60;99.90;;;;;;4938529;28;20522;-73
2023/10/15 08:22:29;;;;;;;23.02;20.67;;;6.70;99.90;;;;;;4917356;28;20131;-71
2023/10/15 08:24:56;;;;;;;24.38;21.60;;;6.70;99.90;;;;;;4910854;28;20039;-72
2023/10/15 08:27:23;;;;;;;21.40;19.30;;;6.70;99.90;;;;;;4923320;28;20073;-73
2023/10/15 08:29:50;;;;;;;25.98;21.38;;;6.80;99.90;;;;;;4936280;28;20619;-73
2023/10/15 08:32:16;;;;;;;26.50;23.15;;;6.80;99.90;;;;;;4934993;28;20585;-71
2023/10/15 08:34:47;;;;;;;27.20;23.15;;;6.90;99.90;;;;;;4919519;28;20051;-71
2023/10/15 08:37:15;;;;;;;27.48;24.05;;;6.90;99.90;;;;;;4936706;28;20129;-71
2023/10/15 08:39:42;;;;;;;28.58;25.25;;;6.90;99.90;;;;;;4915226;28;20043;-72
2023/10/15 08:42:13;;;;;;;28.42;24.38;;;7.00;99.90;;;;;;4915604;28;20039;-72
2023/10/15 08:44:41;;;;;;;25.67;23.05;;;7.10;99.90;;;;;;4933584;28;20053;-72
2023/10/15 08:47:12;;;;;;;29.40;25.65;;;7.10;99.90;;;;;;4934876;28;20031;-73
2023/10/15 08:49:55;;;;;;;28.13;25.17;;;7.10;99.90;;;;;;4914944;28;20134;-71
2023/10/15 08:52:23;;;;;;;30.52;27.38;;;7.10;99.90;;;;;;4926443;28;20134;-73
2023/10/15 08:54:50;;;;;;;29.00;26.13;;;7.10;99.90;;;;;;4916647;28;20047;-73
2023/10/15 08:57:18;;;;;;;29.38;26.30;;;7.20;99.90;;;;;;4936456;28;20125;-74
2023/10/15 08:59:46;;;;;;;28.02;25.10;;;7.30;99.90;;;;;;4918938;28;20051;-73
2023/10/15 09:02:15;;;;;;;31.48;28.10;;;7.30;99.90;;;;;;4925080;28;20035;-74
2023/10/15 09:04:45;;;;;;;30.60;27.63;;;7.30;99.90;;;;;;4922840;28;20055;-72
2023/10/15 09:07:14;;;;;;;28.17;25.58;;;7.30;99.90;;;;;;4927169;28;20050;-73
2023/10/15 09:09:42;;;;;;;29.77;26.88;;;7.30;99.90;;;;;;4938443;28;20138;-73
2023/10/15 09:12:12;;;;;;;28.65;25.83;;;7.40;99.90;;;;;;4935394;28;20050;-73
2023/10/15 09:14:42;;;;;;;27.90;25.08;;;7.40;99.90;;;;;;4936349;28;20174;-73
2023/10/15 09:17:14;;;;;;;29.10;26.15;;;7.20;99.90;;;;;;4936925;28;20063;-73
2023/10/15 09:19:43;;;;;;;28.58;25.88;;;7.10;99.90;;;;;;4936694;28;20141;-73
2023/10/15 09:22:14;;;;;;;27.27;24.80;;;7.20;99.90;;;;;;4922721;28;20126;-72
2023/10/15 09:24:42;;;;;;;30.02;27.02;;;7.20;99.90;;;;;;4901638;28;20054;-72
2023/10/15 09:27:09;;;;;;;27.85;25.02;;;7.30;99.90;;;;;;4939510;28;20137;-73
2023/10/15 09:29:36;;;;;;;25.08;22.73;;;7.40;99.90;;;;;;4923422;28;20842;-73
2023/10/15 09:32:04;;;;;;;26.08;23.58;;;7.50;99.90;;;;;;4936050;28;20107;-73
2023/10/15 09:34:33;;;;;;;26.67;24.35;;;7.70;99.90;;;;;;4910448;29;20042;-72
2023/10/15 09:37:00;;;;;;;26.77;24.20;;;7.70;99.90;;;;;;4927302;28;20059;-74
2023/10/15 09:39:31;;;;;;;26.80;24.50;;;7.70;99.90;;;;;;4937717;28;20055;-73
2023/10/15 09:42:02;;;;;;;23.73;21.73;;;7.70;99.90;;;;;;4917825;28;20047;-75
2023/10/15 09:44:32;;;;;;;24.65;22.70;;;7.70;99.90;;;;;;4922216;28;20055;-74
2023/10/15 09:47:01;;;;;;;22.83;20.77;;;7.60;99.90;;;;;;4936329;28;20142;-74
2023/10/15 09:49:33;;;;;;;23.23;21.55;;;7.80;99.90;;;;;;4939148;28;20377;-73
2023/10/15 09:52:05;;;;;;;25.23;23.42;;;8.00;99.90;;;;;;4938362;28;20179;-73
2023/10/15 09:54:33;;;;;;;26.20;24.08;;;7.90;99.90;;;;;;4938117;28;20142;-75
2023/10/15 09:57:05;;;;;;;26.02;23.73;;;7.90;99.90;;;;;;4913813;28;20054;-71
2023/10/15 09:59:38;;;;;;;24.27;22.55;;;7.80;99.90;;;;;;4932401;28;20501;-72
2023/10/15 10:02:12;;;;;;;25.65;21.48;;;7.80;99.90;;;;;;4915352;28;20077;-71
2023/10/15 10:04:52;;;;;;;25.88;23.08;;;7.60;99.90;;;;;;4921573;28;20070;-72
2023/10/15 10:07:36;;;;;;;24.52;21.77;;;7.50;99.90;;;;;;4930745;28;20036;-72
2023/10/15 10:10:28;;;;;;;18.83;17.15;;;7.50;99.90;;;;;;4933786;28;20067;-69
2023/10/15 10:13:26;;;;;;;17.88;16.48;;;7.60;99.90;;;;;;4929764;28;22531;-70
2023/10/15 10:15:58;;;;;;;21.88;19.75;;;7.50;99.90;;;;;;4932202;28;20070;-70
2023/10/15 10:18:27;;;;;;;18.25;16.63;;;7.40;99.90;;;;;;4916362;28;20140;-70
2023/10/15 10:20:56;;;;;;;17.13;15.40;;;7.50;99.90;;;;;;4912851;28;20051;-70
2023/10/15 10:23:23;;;;;;;15.75;14.63;;;7.40;99.90;;;;;;4916259;28;20118;-70
2023/10/15 10:26:14;;;;;;;16.52;15.43;;;7.10;99.90;;;;;;4930434;28;20293;-69
2023/10/15 10:28:41;;;;;;;17.67;16.25;;;7.10;99.90;;;;;;4913487;28;20055;-70
2023/10/15 10:31:08;;;;;;;15.98;14.75;;;7.20;99.90;;;;;;4931564;28;20074;-69
2023/10/15 10:33:57;;;;;;;16.77;15.05;;;7.20;99.90;;;;;;4906470;28;20047;-69
2023/10/15 10:36:29;;;;;;;15.27;13.93;;;7.30;99.90;;;;;;4930772;28;20059;-71
2023/10/15 10:39:07;;;;;;;15.32;14.05;;;7.40;99.90;;;;;;4916681;28;20200;-71
2023/10/15 10:41:36;;;;;;;14.27;13.27;;;7.40;99.90;;;;;;4917125;29;20051;-71
2023/10/15 10:44:05;;;;;;;17.33;15.93;;;7.10;99.90;;;;;;4919602;28;20047;-72
2023/10/15 10:46:52;;;;;;;19.23;16.30;;;6.90;99.90;;;;;;4934373;28;20035;-71
2023/10/15 10:49:34;;;;;;;15.70;14.40;;;7.10;99.90;;;;;;4910443;28;20081;-71
2023/10/15 10:52:14;;;;;;;16.70;13.45;;;7.30;99.90;;;;;;4931645;28;20047;-70
2023/10/15 10:54:42;;;;;;;15.40;14.25;;;7.50;99.90;;;;;;4918273;28;20050;-71
2023/10/15 10:57:09;;;;;;;16.13;14.77;;;7.40;99.90;;;;;;4936560;28;20045;-71
2023/10/15 10:59:39;;;;;;;16.15;14.50;;;7.30;99.90;;;;;;4936290;28;20055;-69
2023/10/15 11:02:11;;;;;;;13.82;12.80;;;7.40;99.90;;;;;;4935352;28;20051;-70
2023/10/15 11:04:40;;;;;;;16.42;15.07;;;7.80;99.90;;;;;;4933232;28;20051;-67
2023/10/15 11:07:08;;;;;;;17.88;16.73;;;8.20;99.90;;;;;;4934480;28;20110;-68
2023/10/15 11:09:40;;;;;;;20.15;18.75;;;8.50;99.90;;;;;;4936754;28;20043;-70
2023/10/15 11:12:12;;;;;;;21.45;19.85;;;8.60;99.90;;;;;;4932279;28;20051;-68
2023/10/15 11:14:39;;;;;;;18.08;16.90;;;8.50;99.90;;;;;;4936692;28;20051;-69
2023/10/15 11:17:10;;;;;;;17.90;16.80;;;8.80;99.90;;;;;;4918929;28;20823;-68
2023/10/15 11:19:39;;;;;;;17.95;16.50;;;8.70;99.90;;;;;;4916722;29;20401;-70
2023/10/15 11:22:07;;;;;;;16.23;15.30;;;8.70;99.90;;;;;;4920302;28;20807;-67
2023/10/15 11:24:34;;;;;;;16.90;15.80;;;8.70;99.90;;;;;;4935923;28;20047;-69
2023/10/15 11:27:06;;;;;;;17.17;15.95;;;8.90;99.90;;;;;;4934022;28;20178;-68
2023/10/15 11:29:34;;;;;;;18.75;17.60;;;9.10;99.90;;;;;;4918696;29;20589;-71
2023/10/15 11:32:01;;;;;;;18.70;17.67;;;9.30;99.90;;;;;;4932084;28;20058;-71
2023/10/15 11:34:28;;;;;;;19.17;18.17;;;9.30;99.90;;;;;;4936560;28;20051;-74
2023/10/15 11:36:56;;;;;;;19.33;18.13;;;9.40;99.90;;;;;;4931243;28;20606;-73
2023/10/15 11:39:27;;;;;;;20.17;18.95;;;9.50;99.90;;;;;;4935509;28;20047;-72
2023/10/15 11:41:56;;;;;;;20.58;19.17;;;9.30;99.90;;;;;;4912376;28;20296;-72
2023/10/15 11:44:30;;;;;;;19.52;18.33;;;9.10;99.90;;;;;;4936163;28;20047;-73
2023/10/15 11:47:08;;;;;;;19.80;18.52;;;9.00;99.90;;;;;;4934380;28;20138;-71
2023/10/15 11:49:42;;;;;;;19.00;17.60;;;8.90;99.90;;;;;;4928167;29;20467;-69
2023/10/15 11:52:18;;;;;;;17.90;16.80;;;8.60;99.90;;;;;;4936871;28;20125;-69
2023/10/15 11:54:54;;;;;;;16.77;15.73;;;8.50;99.90;;;;;;4937117;28;20162;-71
2023/10/15 11:57:22;;;;;;;19.17;17.90;;;8.50;99.90;;;;;;4908469;28;20645;-72
2023/10/15 11:59:50;;;;;;;18.67;17.35;;;8.40;99.90;;;;;;4921579;28;20656;-70
2023/10/15 12:02:22;;;;;;;20.58;18.92;;;8.50;99.90;;;;;;4916643;28;20047;-70
2023/10/15 12:04:51;;;;;;;20.77;19.23;;;8.70;99.90;;;;;;4933536;28;20062;-69
2023/10/15 12:07:21;;;;;;;20.30;19.15;;;9.00;99.90;;;;;;4934301;28;20102;-70
2023/10/15 12:09:49;;;;;;;19.58;18.38;;;9.20;99.90;;;;;;4935208;28;20537;-69
2023/10/15 12:12:17;;;;;;;19.77;18.58;;;9.60;99.90;;;;;;4915993;28;20046;-70
2023/10/15 12:14:45;;;;;;;20.90;19.42;;;9.60;99.90;;;;;;4918197;28;20050;-69
2023/10/15 12:17:15;;;;;;;20.77;19.55;;;9.50;99.90;;;;;;4925403;28;20043;-70
2023/10/15 12:19:44;;;;;;;22.08;20.48;;;9.20;99.90;;;;;;4935617;28;20053;-70
2023/10/15 12:22:15;;;;;;;20.20;18.70;;;9.10;99.90;;;;;;4918729;28;20059;-71
2023/10/15 12:24:43;;;;;;;21.15;19.77;;;9.00;99.90;;;;;;4935487;28;20114;-72
2023/10/15 12:27:10;;;;;;;20.67;19.25;;;8.90;99.90;;;;;;4918318;28;20043;-71
2023/10/15 12:29:38;;;;;;;21.67;20.38;;;8.80;99.90;;;;;;4917631;28;20051;-72
2023/10/15 12:32:08;;;;;;;20.70;19.40;;;8.70;99.90;;;;;;4916427;28;20760;-70
2023/10/15 12:34:39;;;;;;;21.60;20.10;;;8.70;99.90;;;;;;4917534;28;20050;-70
2023/10/15 12:37:07;;;;;;;21.70;20.05;;;8.90;99.90;;;;;;4930434;28;20074;-71
2023/10/15 12:39:35;;;;;;;20.90;19.70;;;9.10;99.90;;;;;;4917977;28;20042;-70
2023/10/15 12:42:05;;;;;;;21.60;20.20;;;9.30;99.90;;;;;;4930509;28;20619;-70
2023/10/15 12:44:36;;;;;;;22.67;21.27;;;9.50;99.90;;;;;;4922295;28;20073;-72
2023/10/15 12:47:03;;;;;;;24.52;22.92;;;9.70;99.90;;;;;;4914744;28;20203;-72
2023/10/15 12:49:31;;;;;;;23.67;22.10;;;9.50;99.90;;;;;;4920290;28;20047;-72
2023/10/15 12:51:58;;;;;;;24.80;23.30;;;9.40;99.90;;;;;;4917451;28;20040;-73
2023/10/15 12:54:25;;;;;;;24.67;22.98;;;9.10;99.90;;;;;;4905832;28;20051;-72